createdAt,value
2022-12-19T00:01:07.475Z,2.67
2022-12-19T00:03:36.439Z,2.94
2022-12-19T00:06:03.514Z,2.96
2022-12-19T00:08:33.057Z,2.77
2022-12-19T00:11:02.322Z,2.90
2022-12-19T00:13:34.441Z,2.87
2022-12-19T00:16:09.215Z,2.94
2022-12-19T00:18:39.823Z,2.94
2022-12-19T00:21:06.659Z,3.09
2022-12-19T00:23:38.185Z,3.01
2022-12-19T00:26:11.955Z,2.99
2022-12-19T00:28:38.803Z,3.06
2022-12-19T00:31:06.325Z,3.14
2022-12-19T00:33:33.037Z,3.05
2022-12-19T00:36:06.561Z,3.21
2022-12-19T00:38:34.139Z,3.31
2022-12-19T00:41:09.562Z,3.14
2022-12-19T00:43:38.223Z,2.94
2022-12-19T00:46:07.574Z,2.91
2022-12-19T00:48:36.561Z,3.27
2022-12-19T00:51:05.744Z,3.14
2022-12-19T00:53:35.038Z,3.22
2022-12-19T00:56:02.991Z,3.24
2022-12-19T00:58:33.216Z,3.25
2022-12-19T01:01:09.161Z,3.24
2022-12-19T01:03:36.298Z,3.31
2022-12-19T01:06:02.976Z,2.98
2022-12-19T01:08:29.926Z,3.32
2022-12-19T01:10:58.413Z,3.27
2022-12-19T01:13:27.363Z,3.36
2022-12-19T01:15:55.629Z,3.28
2022-12-19T01:18:26.643Z,3.32
2022-12-19T01:20:53.714Z,3.31
2022-12-19T01:23:23.203Z,3.36
2022-12-19T01:25:55.770Z,3.45
2022-12-19T01:28:22.972Z,3.41
2022-12-19T01:30:49.492Z,3.44
2022-12-19T01:33:19.010Z,3.38
2022-12-19T01:35:47.896Z,3.49
2022-12-19T01:38:15.673Z,3.50
2022-12-19T01:40:50.079Z,3.43
2022-12-19T01:43:16.650Z,3.52
2022-12-19T01:45:45.935Z,3.66
2022-12-19T01:48:19.235Z,3.42
2022-12-19T01:51:02.052Z,3.54
2022-12-19T01:53:33.446Z,3.64
2022-12-19T01:56:09.476Z,3.70
2022-12-19T01:58:38.222Z,3.68
2022-12-19T02:01:06.566Z,3.60
2022-12-19T02:03:35.652Z,3.50
2022-12-19T02:06:05.467Z,3.43
2022-12-19T02:08:32.907Z,3.52
2022-12-19T02:11:01.754Z,3.78
2022-12-19T02:13:28.525Z,3.71
2022-12-19T02:16:02.660Z,3.65
2022-12-19T02:18:39.986Z,3.94
2022-12-19T02:21:39.469Z,3.82
2022-12-19T02:24:42.465Z,3.97
2022-12-19T02:27:49.198Z,3.84
2022-12-19T02:30:17.804Z,3.92
2022-12-19T02:33:11.267Z,3.98
2022-12-19T02:35:42.754Z,3.79
2022-12-19T02:38:15.962Z,3.85
2022-12-19T02:40:53.768Z,3.93
2022-12-19T02:43:25.391Z,3.99
2022-12-19T02:45:53.573Z,4.17
2022-12-19T02:48:26.638Z,4.08
2022-12-19T02:50:53.487Z,4.26
2022-12-19T02:53:23.650Z,4.25
2022-12-19T02:56:08.093Z,3.99
2022-12-19T02:58:48.210Z,4.12
2022-12-19T03:01:24.740Z,4.20
2022-12-19T03:04:03.568Z,4.14
2022-12-19T03:06:38.649Z,4.41
2022-12-19T03:09:15.909Z,4.28
2022-12-19T03:11:45.019Z,4.28
2022-12-19T03:14:15.805Z,4.47
2022-12-19T03:16:42.496Z,4.53
2022-12-19T03:19:16.687Z,4.72
2022-12-19T03:21:45.717Z,4.66
2022-12-19T03:24:14.764Z,4.54
2022-12-19T03:26:48.626Z,4.48
2022-12-19T03:29:20.547Z,4.43
2022-12-19T03:31:49.653Z,4.52
2022-12-19T03:34:22.380Z,4.62
2022-12-19T03:36:54.966Z,4.80
2022-12-19T03:39:23.335Z,4.45
2022-12-19T03:41:51.728Z,4.58
2022-12-19T03:44:20.769Z,4.52
2022-12-19T03:46:54.437Z,4.31
2022-12-19T03:49:22.356Z,4.45
2022-12-19T03:51:59.404Z,4.48
2022-12-19T03:54:29.438Z,4.49
2022-12-19T03:57:02.195Z,4.52
2022-12-19T03:59:34.180Z,4.65
2022-12-19T04:02:02.253Z,4.48
2022-12-19T04:04:32.513Z,4.44
2022-12-19T04:07:01.278Z,4.63
2022-12-19T04:09:29.091Z,4.50
2022-12-19T04:12:03.558Z,4.40
2022-12-19T04:14:31.822Z,4.40
2022-12-19T04:17:08.467Z,4.45
2022-12-19T04:19:42.761Z,4.52
2022-12-19T04:22:14.717Z,4.53
2022-12-19T04:24:43.711Z,4.51
2022-12-19T04:27:14.263Z,4.49
2022-12-19T04:29:42.238Z,4.53
2022-12-19T04:32:09.745Z,4.45
2022-12-19T04:34:45.249Z,4.59
2022-12-19T04:37:16.638Z,4.53
2022-12-19T04:39:43.161Z,4.63
2022-12-19T04:42:09.893Z,4.78
2022-12-19T04:44:37.768Z,4.67
2022-12-19T04:47:04.443Z,4.69
2022-12-19T04:49:30.909Z,4.80
2022-12-19T04:51:58.734Z,4.50
2022-12-19T04:54:25.484Z,4.58
2022-12-19T04:56:54.013Z,4.53
2022-12-19T04:59:20.804Z,4.55
2022-12-19T05:01:49.854Z,4.79
2022-12-19T05:04:16.497Z,4.89
2022-12-19T05:06:43.521Z,4.80
2022-12-19T05:09:11.899Z,4.91
2022-12-19T05:11:39.365Z,4.79
2022-12-19T05:14:05.898Z,4.72
2022-12-19T05:16:32.438Z,4.72
2022-12-19T05:18:59.128Z,4.79
2022-12-19T05:21:25.712Z,4.80
2022-12-19T05:23:52.410Z,4.66
2022-12-19T05:26:20.564Z,4.82
2022-12-19T05:28:47.108Z,4.67
2022-12-19T05:31:16.676Z,4.73
2022-12-19T05:33:48.988Z,4.84
2022-12-19T05:36:17.916Z,4.88
2022-12-19T05:38:44.491Z,4.91
2022-12-19T05:41:12.683Z,5.04
2022-12-19T05:43:42.373Z,4.99
2022-12-19T05:46:09.064Z,4.97
2022-12-19T05:48:36.663Z,4.94
2022-12-19T05:51:03.718Z,4.84
2022-12-19T05:57:06.300Z,4.97
2022-12-19T05:59:35.425Z,4.97
2022-12-19T06:02:02.090Z,4.91
2022-12-19T06:04:29.657Z,5.11
2022-12-19T06:06:57.294Z,5.24
2022-12-19T06:09:24.371Z,5.24
2022-12-19T06:11:51.526Z,5.18
2022-12-19T06:14:19.683Z,5.41
2022-12-19T06:16:49.467Z,5.38
2022-12-19T06:19:16.171Z,5.63
2022-12-19T06:21:48.112Z,5.39
2022-12-19T06:24:17.230Z,5.55
2022-12-19T06:26:45.001Z,5.42
2022-12-19T06:29:12.083Z,5.60
2022-12-19T06:31:38.986Z,5.66
2022-12-19T06:34:06.939Z,5.54
2022-12-19T06:36:33.491Z,5.85
2022-12-19T06:39:00.096Z,5.88
2022-12-19T06:41:27.914Z,5.99
2022-12-19T06:43:57.763Z,5.90
2022-12-19T06:46:27.850Z,5.81
2022-12-19T06:48:55.570Z,5.97
2022-12-19T06:51:23.659Z,5.86
2022-12-19T06:53:51.687Z,6.05
2022-12-19T06:56:18.991Z,5.97
2022-12-19T06:58:45.858Z,6.06
2022-12-19T07:01:17.757Z,6.04
2022-12-19T07:03:46.260Z,6.16
2022-12-19T07:06:13.302Z,6.14
2022-12-19T07:08:44.928Z,6.16
2022-12-19T07:11:11.486Z,6.18
2022-12-19T07:13:38.015Z,6.29
2022-12-19T07:16:06.084Z,6.40
2022-12-19T07:18:36.790Z,6.13
2022-12-19T07:21:04.861Z,6.23
2022-12-19T07:23:31.614Z,6.07
2022-12-19T07:25:59.587Z,6.35
2022-12-19T07:28:26.197Z,6.62
2022-12-19T07:30:53.082Z,6.60
2022-12-19T07:33:21.698Z,6.54
2022-12-19T07:35:48.780Z,6.65
2022-12-19T07:38:15.977Z,6.92
2022-12-19T07:40:42.541Z,6.90
2022-12-19T07:43:11.017Z,6.68
2022-12-19T07:45:39.036Z,6.92
2022-12-19T07:48:07.264Z,6.97
2022-12-19T07:50:34.018Z,6.76
2022-12-19T07:53:00.582Z,6.75
2022-12-19T07:55:27.143Z,6.61
2022-12-19T07:57:53.849Z,6.66
2022-12-19T08:00:21.973Z,6.63
2022-12-19T08:02:48.641Z,6.92
2022-12-19T08:05:15.867Z,6.69
2022-12-19T08:07:42.505Z,6.69
2022-12-19T08:10:09.886Z,6.66
2022-12-19T08:12:37.965Z,6.86
2022-12-19T08:15:05.583Z,6.77
2022-12-19T08:17:33.632Z,6.89
2022-12-19T08:20:00.205Z,7.04
2022-12-19T08:22:28.727Z,7.00
2022-12-19T08:24:55.541Z,7.09
2022-12-19T08:27:22.114Z,6.99
2022-12-19T08:29:48.755Z,7.08
2022-12-19T08:32:20.794Z,6.90
2022-12-19T08:34:50.176Z,6.94
2022-12-19T08:37:17.066Z,7.22
2022-12-19T08:39:43.868Z,7.29
2022-12-19T08:42:10.525Z,7.32
2022-12-19T08:44:38.237Z,7.32
2022-12-19T08:47:04.902Z,7.37
2022-12-19T08:49:31.522Z,7.36
2022-12-19T08:51:59.453Z,7.39
2022-12-19T08:54:25.934Z,7.38
2022-12-19T08:56:52.526Z,7.37
2022-12-19T08:59:30.810Z,7.42
2022-12-19T09:01:59.471Z,7.37
2022-12-19T09:05:18.739Z,7.18
2022-12-19T09:07:15.778Z,7.36
2022-12-19T09:09:42.689Z,7.37
2022-12-19T09:12:09.296Z,7.32
2022-12-19T09:14:35.871Z,7.70
2022-12-19T09:17:03.809Z,7.60
2022-12-19T09:19:31.810Z,7.75
2022-12-19T09:21:59.757Z,7.84
2022-12-19T09:24:28.065Z,7.84
2022-12-19T09:26:54.630Z,7.68
2022-12-19T09:29:22.057Z,7.81
2022-12-19T09:31:55.329Z,7.83
2022-12-19T09:34:24.874Z,7.87
2022-12-19T09:36:59.767Z,8.17
2022-12-19T09:39:27.823Z,7.99
2022-12-19T09:42:15.154Z,8.30
2022-12-19T09:44:56.589Z,8.20
2022-12-19T09:47:25.519Z,8.30
2022-12-19T09:49:53.066Z,8.38
2022-12-19T09:52:25.705Z,8.43
2022-12-19T09:55:01.731Z,8.43
2022-12-19T09:57:38.217Z,8.47
2022-12-19T10:00:11.623Z,8.64
2022-12-19T10:02:44.087Z,8.55
2022-12-19T10:05:24.170Z,8.78
2022-12-19T10:08:16.054Z,8.59
2022-12-19T10:12:38.706Z,8.62
2022-12-19T10:14:00.945Z,8.93
2022-12-19T10:16:36.653Z,8.60
2022-12-19T10:19:05.797Z,8.80
2022-12-19T10:22:15.646Z,8.93
2022-12-19T10:25:08.077Z,8.67
2022-12-19T10:27:59.578Z,8.63
2022-12-19T10:30:31.973Z,8.86
2022-12-19T10:33:07.296Z,8.57
2022-12-19T10:35:42.617Z,8.86
2022-12-19T10:38:21.188Z,9.06
2022-12-19T10:40:53.540Z,8.98
2022-12-19T10:43:34.812Z,8.88
2022-12-19T10:46:16.776Z,9.05
2022-12-19T10:48:43.632Z,8.86
2022-12-19T10:51:13.420Z,9.09
2022-12-19T10:54:12.696Z,9.16
2022-12-19T10:56:39.276Z,9.21
2022-12-19T11:00:04.433Z,9.25
2022-12-19T11:02:45.754Z,9.06
2022-12-19T11:05:24.351Z,9.09
2022-12-19T11:08:01.914Z,9.11
2022-12-19T11:12:01.205Z,9.11
2022-12-19T11:16:53.656Z,9.15
2022-12-19T11:21:15.986Z,9.04
2022-12-19T11:29:15.977Z,9.29
2022-12-19T11:29:40.718Z,9.11
2022-12-19T11:29:43.951Z,8.88
2022-12-19T11:30:38.375Z,9.13
2022-12-19T11:33:29.379Z,9.20
2022-12-19T11:35:58.433Z,9.37
2022-12-19T11:38:34.694Z,9.34
2022-12-19T11:41:11.019Z,9.38
2022-12-19T11:43:47.389Z,9.22
2022-12-19T11:46:26.181Z,9.43
2022-12-19T11:49:02.269Z,9.57
2022-12-19T11:51:37.748Z,9.65
2022-12-19T11:54:12.966Z,9.49
2022-12-19T11:56:39.986Z,9.40
2022-12-19T11:59:15.328Z,9.55
2022-12-19T12:01:52.575Z,9.66
2022-12-19T12:04:55.321Z,9.77
2022-12-19T12:08:17.704Z,10.08
2022-12-19T12:17:18.659Z,9.79
2022-12-19T12:22:00.724Z,9.75
2022-12-19T12:26:08.432Z,9.85
2022-12-19T12:31:08.553Z,10.00
2022-12-19T12:31:12.119Z,9.97
2022-12-19T12:31:42.405Z,10.31
2022-12-19T12:31:46.812Z,10.32
2022-12-19T12:35:43.567Z,10.57
2022-12-19T12:40:25.244Z,10.67
2022-12-19T12:43:03.707Z,10.64
2022-12-19T12:45:35.822Z,10.67
2022-12-19T12:48:02.650Z,10.79
2022-12-19T12:50:31.151Z,10.81
2022-12-19T12:53:04.903Z,10.86
2022-12-19T12:55:34.302Z,10.76
2022-12-19T12:58:02.504Z,10.88
2022-12-19T13:00:30.223Z,10.72
2022-12-19T13:03:07.857Z,10.41
2022-12-19T13:06:04.710Z,10.31
2022-12-19T13:08:37.357Z,10.42
2022-12-19T13:11:06.069Z,10.27
2022-12-19T13:13:53.701Z,10.54
2022-12-19T13:16:48.832Z,10.46
2022-12-19T13:19:22.575Z,10.55
2022-12-19T13:22:20.690Z,10.23
2022-12-19T13:24:50.941Z,10.31
2022-12-19T13:27:39.438Z,10.25
2022-12-19T13:30:20.251Z,10.40
2022-12-19T13:33:08.738Z,10.42
2022-12-19T13:38:58.051Z,10.22
2022-12-19T13:39:54.779Z,10.22
2022-12-19T13:41:27.150Z,10.10
2022-12-19T13:43:59.867Z,10.15
2022-12-19T13:46:36.519Z,9.88
2022-12-19T13:49:06.839Z,9.97
2022-12-19T13:51:42.264Z,9.79
2022-12-19T13:54:20.526Z,9.97
2022-12-19T13:56:48.731Z,9.92
2022-12-19T13:59:15.521Z,10.02
2022-12-19T14:01:42.444Z,9.64
2022-12-19T14:04:12.486Z,9.80
2022-12-19T14:06:41.170Z,9.79
2022-12-19T14:11:25.919Z,9.74
2022-12-19T14:13:55.024Z,10.01
2022-12-19T14:15:21.435Z,9.78
2022-12-19T14:17:48.823Z,9.74
2022-12-19T14:20:54.334Z,9.55
2022-12-19T14:23:05.949Z,9.47
2022-12-19T14:28:14.331Z,9.49
2022-12-19T14:28:36.035Z,9.74
2022-12-19T14:31:07.914Z,9.65
2022-12-19T14:33:45.139Z,9.56
2022-12-19T14:36:26.228Z,9.46
2022-12-19T14:39:24.940Z,9.49
2022-12-19T14:41:44.960Z,9.47
2022-12-19T14:51:25.266Z,9.57
2022-12-19T14:52:25.408Z,9.38
2022-12-19T14:54:07.207Z,9.23
2022-12-19T14:54:33.979Z,9.20
2022-12-19T14:56:12.965Z,9.28
2022-12-19T14:58:55.485Z,9.36
2022-12-19T15:01:24.531Z,9.34
2022-12-19T15:04:48.235Z,9.35
2022-12-19T15:07:06.672Z,9.30
2022-12-19T15:10:58.960Z,9.25
2022-12-19T15:14:49.150Z,9.38
2022-12-19T15:15:21.502Z,9.46
2022-12-19T15:17:51.292Z,9.36
2022-12-19T15:20:18.255Z,9.35
2022-12-19T15:22:45.178Z,9.31
2022-12-19T15:25:36.071Z,9.35
2022-12-19T15:28:01.038Z,9.31
2022-12-19T15:30:34.038Z,9.13
2022-12-19T15:33:01.903Z,9.18
2022-12-19T15:35:28.510Z,9.35
2022-12-19T15:37:55.272Z,9.46
2022-12-19T15:40:21.870Z,9.21
2022-12-19T15:42:54.904Z,9.35
2022-12-19T15:45:21.551Z,9.35
2022-12-19T15:47:48.813Z,9.10
2022-12-19T15:50:20.561Z,9.13
2022-12-19T15:52:47.321Z,9.43
2022-12-19T15:55:14.937Z,9.38
2022-12-19T15:57:44.372Z,9.43
2022-12-19T16:00:17.642Z,9.18
2022-12-19T16:05:32.733Z,9.41
2022-12-19T16:07:59.412Z,9.30
2022-12-19T16:10:26.631Z,9.13
2022-12-19T16:12:56.679Z,9.23
2022-12-19T16:15:27.152Z,9.25
2022-12-19T16:17:54.018Z,9.30
2022-12-19T16:20:23.658Z,9.47
2022-12-19T16:22:51.806Z,9.25
2022-12-19T16:25:19.218Z,9.35
2022-12-19T16:27:50.256Z,9.43
2022-12-19T16:30:19.994Z,9.46
2022-12-19T16:32:46.857Z,9.30
2022-12-19T16:35:24.031Z,9.24
2022-12-19T16:38:02.387Z,9.30
2022-12-19T16:40:28.986Z,9.43
2022-12-19T16:43:04.898Z,9.24
2022-12-19T16:45:33.558Z,9.27
2022-12-19T16:48:01.604Z,9.34
2022-12-19T16:50:31.616Z,9.35
2022-12-19T16:52:59.937Z,9.47
2022-12-19T16:55:27.806Z,9.51
2022-12-19T16:57:55.881Z,9.37
2022-12-19T17:00:24.298Z,9.47
2022-12-19T17:02:54.184Z,9.40
2022-12-19T17:05:23.677Z,9.51
2022-12-19T17:07:50.742Z,9.39
2022-12-19T17:10:24.245Z,9.45
2022-12-19T17:12:55.009Z,9.50
2022-12-19T17:15:25.675Z,9.68
2022-12-19T17:17:53.279Z,9.81
2022-12-19T17:20:22.880Z,9.56
2022-12-19T17:22:49.405Z,9.80
2022-12-19T17:25:19.640Z,9.57
2022-12-19T17:27:47.171Z,9.76
2022-12-19T17:30:16.999Z,9.87
2022-12-19T17:32:45.543Z,9.84
2022-12-19T17:35:16.949Z,10.05
2022-12-19T17:37:46.653Z,10.17
2022-12-19T17:40:18.732Z,10.09
2022-12-19T17:42:45.802Z,10.21
2022-12-19T17:45:12.379Z,9.91
2022-12-19T17:47:45.573Z,10.16
2022-12-19T17:50:21.413Z,10.23
2022-12-19T17:52:48.011Z,10.26
2022-12-19T17:55:20.563Z,10.46
2022-12-19T17:57:58.144Z,10.31
2022-12-19T18:00:30.706Z,10.25
2022-12-19T18:03:02.309Z,10.35
2022-12-19T18:05:32.148Z,10.27
2022-12-19T18:07:58.854Z,10.15
2022-12-19T18:10:28.147Z,10.59
2022-12-19T18:12:56.603Z,10.41
2022-12-19T18:15:25.241Z,10.61
2022-12-19T18:17:57.227Z,10.38
2022-12-19T18:20:32.333Z,10.35
2022-12-19T18:23:00.266Z,10.37
2022-12-19T18:25:30.927Z,10.51
2022-12-19T18:27:58.343Z,10.70
2022-12-19T18:30:25.746Z,10.54
2022-12-19T18:32:55.995Z,10.66
2022-12-19T18:35:29.427Z,10.61
2022-12-19T18:37:59.366Z,10.43
2022-12-19T18:40:31.318Z,10.48
2022-12-19T18:42:58.234Z,10.65
2022-12-19T18:45:30.711Z,10.73
2022-12-19T18:48:01.166Z,10.76
2022-12-19T18:51:06.740Z,10.73
2022-12-19T18:53:35.770Z,10.72
2022-12-19T18:56:07.116Z,10.52
2022-12-19T19:01:19.686Z,10.59
2022-12-19T19:03:52.740Z,10.69
2022-12-19T19:06:22.789Z,10.69
2022-12-19T19:09:34.040Z,10.89
2022-12-19T19:15:26.363Z,11.15
2022-12-19T19:17:56.848Z,11.00
2022-12-19T19:20:24.293Z,10.87
2022-12-19T19:22:52.910Z,10.86
2022-12-19T19:25:19.510Z,10.73
2022-12-19T19:27:46.310Z,11.02
2022-12-19T19:30:13.143Z,10.88
2022-12-19T19:32:44.307Z,11.17
2022-12-19T19:35:13.917Z,11.26
2022-12-19T19:37:40.728Z,11.32
2022-12-19T19:40:10.310Z,11.15
2022-12-19T19:42:36.942Z,11.08
2022-12-19T19:45:04.636Z,11.23
2022-12-19T19:47:34.579Z,10.97
2022-12-19T19:50:01.118Z,11.05
2022-12-19T19:52:27.897Z,11.21
2022-12-19T19:54:54.381Z,11.25
2022-12-19T19:57:22.277Z,11.34
2022-12-19T19:59:48.876Z,11.15
2022-12-19T20:02:17.547Z,11.30
2022-12-19T20:04:44.271Z,11.43
2022-12-19T20:07:10.825Z,11.74
2022-12-19T20:09:37.328Z,11.47
2022-12-19T20:12:04.282Z,11.47
2022-12-19T20:14:32.111Z,11.56
2022-12-19T20:16:58.605Z,11.65
2022-12-19T20:19:25.232Z,11.78
2022-12-19T20:21:51.889Z,11.76
2022-12-19T20:24:18.964Z,11.77
2022-12-19T20:26:45.445Z,11.69
2022-12-19T20:29:11.971Z,11.70
2022-12-19T20:31:41.363Z,11.67
2022-12-19T20:34:08.569Z,11.85
2022-12-19T20:36:38.877Z,11.93
2022-12-19T20:39:05.911Z,11.85
2022-12-19T20:41:32.839Z,11.98
2022-12-19T20:43:59.633Z,11.58
2022-12-19T20:46:26.204Z,11.54
2022-12-19T20:48:54.287Z,11.57
2022-12-19T20:51:24.135Z,11.76
2022-12-19T20:53:59.643Z,11.71
2022-12-19T20:56:26.173Z,11.73
2022-12-19T20:58:52.816Z,11.77
2022-12-19T21:01:22.176Z,11.96
2022-12-19T21:03:49.392Z,12.03
2022-12-19T21:06:19.296Z,12.03
2022-12-19T21:08:49.936Z,11.91
2022-12-19T21:11:16.810Z,12.03
2022-12-19T21:13:43.682Z,12.04
2022-12-19T21:16:14.040Z,11.77
2022-12-19T21:18:41.864Z,11.77
2022-12-19T21:21:12.257Z,11.95
2022-12-19T21:23:40.248Z,11.90
2022-12-19T21:26:06.804Z,11.72
2022-12-19T21:28:34.439Z,11.81
2022-12-19T21:31:03.364Z,11.78
2022-12-19T21:33:29.978Z,11.68
2022-12-19T21:35:57.201Z,11.87
2022-12-19T21:38:23.798Z,11.79
2022-12-19T21:40:51.647Z,12.02
2022-12-19T21:43:18.495Z,11.89
2022-12-19T21:45:45.000Z,11.54
2022-12-19T21:48:11.515Z,11.80
2022-12-19T21:50:39.968Z,11.57
2022-12-19T21:53:06.484Z,11.61
2022-12-19T21:55:33.002Z,11.60
2022-12-19T21:58:00.933Z,11.76
2022-12-19T22:00:31.620Z,11.73
2022-12-19T22:03:15.257Z,11.87
2022-12-19T22:05:43.142Z,11.57
2022-12-19T22:08:10.820Z,11.89
2022-12-19T22:10:38.234Z,11.98
2022-12-19T22:13:06.077Z,11.96
2022-12-19T22:15:35.892Z,11.89
2022-12-19T22:18:02.397Z,12.05
2022-12-19T22:20:28.868Z,11.98
2022-12-19T22:22:55.479Z,11.98
2022-12-19T22:25:21.949Z,11.93
2022-12-19T22:27:49.912Z,11.89
2022-12-19T22:30:17.817Z,12.13
2022-12-19T22:32:44.568Z,11.81
2022-12-19T22:35:13.081Z,12.07
2022-12-19T22:37:39.832Z,12.11
2022-12-19T22:40:09.862Z,12.03
2022-12-19T22:42:36.390Z,12.10
2022-12-19T22:45:04.002Z,12.16
2022-12-19T22:47:31.866Z,12.25
2022-12-19T22:49:58.423Z,12.08
2022-12-19T22:52:25.959Z,12.22
2022-12-19T22:54:52.409Z,12.12
2022-12-19T22:57:18.895Z,12.23
2022-12-19T22:59:46.003Z,12.20
2022-12-19T23:02:12.629Z,12.13
2022-12-19T23:04:40.706Z,12.11
2022-12-19T23:07:07.555Z,12.03
2022-12-19T23:09:35.158Z,12.16
2022-12-19T23:12:01.669Z,12.16
2022-12-19T23:14:28.511Z,12.26
2022-12-19T23:16:57.844Z,12.15
2022-12-19T23:19:24.364Z,12.15
2022-12-19T23:21:52.185Z,12.10
2022-12-19T23:24:18.654Z,12.08
2022-12-19T23:26:45.415Z,12.15
2022-12-19T23:29:14.254Z,12.17
2022-12-19T23:31:43.524Z,12.52
2022-12-19T23:34:10.290Z,12.34
2022-12-19T23:39:24.869Z,12.29
2022-12-19T23:41:51.797Z,12.36
2022-12-19T23:44:18.931Z,12.30
2022-12-19T23:46:45.458Z,12.46
2022-12-19T23:49:13.044Z,12.32
2022-12-19T23:51:39.528Z,12.33
2022-12-19T23:54:06.285Z,12.30
2022-12-19T23:56:35.317Z,12.22
2022-12-19T23:59:02.234Z,12.51
